Terminal Aerodrome Forecast
Issued by NWS

Home | Current Version | Previous Version | Text Only | Print | Product List | Glossary On
Versions: 1 2 3 4 5 6 7 8 9 10 11 12 13 14 15 16 17 18 19 20 21 22 23
000
FTUS43 KDVN 021600 AAC
TAFCID
TAF AMD
KCID 021608Z 0216/0312 17008KT P6SM BKN015 BKN025
      TEMPO 0220/0224 3SM TSRA BR BKN010CB OVC020
     FM030000 28010KT 6SM SHRA BR OVC008
     FM030500 32012KT 5SM BR OVC010
      AMD NOT SKED=

USA.gov is the U.S. government's official web portal to all federal, state and local government web resources and services.